createdAt,value
2022-10-18T00:00:20.473Z,16.03
2022-10-18T00:02:47.406Z,15.23
2022-10-18T00:05:14.398Z,15.93
2022-10-18T00:07:41.242Z,15.43
2022-10-18T00:10:08.947Z,13.80
2022-10-18T00:12:37.849Z,15.50
2022-10-18T00:15:07.039Z,15.23
2022-10-18T00:17:38.869Z,15.05
2022-10-18T00:20:07.047Z,14.03
2022-10-18T00:22:39.100Z,15.27
2022-10-18T00:25:07.650Z,14.47
2022-10-18T00:27:35.092Z,11.30
2022-10-18T00:30:01.903Z,11.37
2022-10-18T00:32:29.060Z,11.60
2022-10-18T00:34:56.177Z,11.73
2022-10-18T00:37:22.925Z,11.97
2022-10-18T00:39:50.296Z,11.40
2022-10-18T00:42:21.733Z,11.23
2022-10-18T00:44:51.543Z,8.97
2022-10-18T00:47:19.848Z,9.50
2022-10-18T00:49:51.768Z,9.83
2022-10-18T00:52:24.211Z,10.07
2022-10-18T00:54:52.586Z,10.30
2022-10-18T00:57:19.590Z,11.10
2022-10-18T00:59:47.181Z,9.17
2022-10-18T01:02:18.511Z,10.50
2022-10-18T01:04:46.536Z,10.63
2022-10-18T01:07:38.030Z,10.33
2022-10-18T01:10:30.666Z,11.20
2022-10-18T01:13:24.863Z,10.73
2022-10-18T01:16:07.645Z,11.40
2022-10-18T01:19:01.209Z,10.23
2022-10-18T01:21:48.605Z,9.33
2022-10-18T01:24:46.360Z,8.67
2022-10-18T01:27:34.866Z,9.97
2022-10-18T01:30:36.843Z,8.02
2022-10-18T01:33:25.081Z,8.50
2022-10-18T01:35:59.351Z,8.83
2022-10-18T01:38:27.505Z,8.80
2022-10-18T01:40:56.439Z,8.07
2022-10-18T01:43:25.035Z,8.50
2022-10-18T01:45:54.862Z,8.67
2022-10-18T01:48:24.151Z,7.73
2022-10-18T01:50:53.196Z,8.02
2022-10-18T01:53:32.826Z,7.35
2022-10-18T01:56:27.448Z,6.77
2022-10-18T01:59:11.950Z,7.27
2022-10-18T02:01:46.903Z,7.33
2022-10-18T02:04:37.705Z,7.60
2022-10-18T02:07:17.203Z,8.27
2022-10-18T02:09:52.756Z,8.23
2022-10-18T02:12:21.819Z,7.63
2022-10-18T02:14:50.641Z,8.15
2022-10-18T02:17:21.282Z,8.35
2022-10-18T02:19:52.535Z,7.23
2022-10-18T02:22:20.807Z,8.73
2022-10-18T02:24:52.250Z,7.70
2022-10-18T02:27:20.109Z,7.97
2022-10-18T02:29:47.957Z,8.47
2022-10-18T02:32:39.974Z,8.17
2022-10-18T02:35:39.237Z,8.07
2022-10-18T02:38:07.886Z,7.97
2022-10-18T02:40:34.894Z,7.80
2022-10-18T02:43:01.747Z,9.70
2022-10-18T02:45:29.029Z,10.03
2022-10-18T02:47:55.871Z,7.53
2022-10-18T02:50:22.778Z,9.33
2022-10-18T02:52:49.611Z,8.80
2022-10-18T02:55:16.823Z,8.57
2022-10-18T02:57:43.833Z,8.40
2022-10-18T03:00:11.255Z,8.40
2022-10-18T03:02:38.102Z,8.50
2022-10-18T03:05:05.214Z,8.03
2022-10-18T03:07:32.172Z,8.90
2022-10-18T03:09:59.131Z,9.03
2022-10-18T03:12:25.889Z,7.67
2022-10-18T03:14:52.733Z,8.13
2022-10-18T03:17:19.586Z,8.87
2022-10-18T03:19:46.385Z,7.13
2022-10-18T03:22:13.207Z,6.67
2022-10-18T03:24:40.045Z,8.97
2022-10-18T03:27:06.978Z,6.80
2022-10-18T03:29:33.716Z,8.47
2022-10-18T03:32:00.495Z,8.83
2022-10-18T03:34:27.292Z,8.87
2022-10-18T03:36:55.110Z,8.33
2022-10-18T03:39:21.917Z,8.60
2022-10-18T03:41:48.798Z,8.40
2022-10-18T03:44:15.554Z,7.63
2022-10-18T03:46:42.355Z,8.53
2022-10-18T03:49:09.119Z,9.73
2022-10-18T03:51:36.001Z,9.50
2022-10-18T03:54:02.900Z,8.77
2022-10-18T03:56:29.729Z,9.30
2022-10-18T03:58:57.303Z,9.47
2022-10-18T04:01:24.206Z,10.00
2022-10-18T04:03:51.052Z,11.40
2022-10-18T04:06:17.822Z,16.33
2022-10-18T04:08:44.622Z,23.97
2022-10-18T04:11:12.260Z,17.50
2022-10-18T04:13:39.323Z,9.93
2022-10-18T04:16:06.324Z,9.77
2022-10-18T04:18:33.179Z,8.87
2022-10-18T04:20:59.979Z,9.97
2022-10-18T04:23:26.763Z,10.80
2022-10-18T04:25:53.557Z,10.30
2022-10-18T04:28:20.370Z,10.53
2022-10-18T04:30:53.879Z,11.63
2022-10-18T04:33:20.745Z,13.17
2022-10-18T04:35:50.911Z,10.40
2022-10-18T04:38:17.725Z,10.17
2022-10-18T04:40:44.536Z,11.80
2022-10-18T04:43:11.364Z,12.60
2022-10-18T04:45:38.302Z,13.00
2022-10-18T04:48:05.304Z,13.63
2022-10-18T04:50:32.212Z,18.40
2022-10-18T04:52:59.215Z,25.03
2022-10-18T04:55:26.143Z,27.37
2022-10-18T04:57:53.774Z,26.40
2022-10-18T05:00:21.020Z,21.27
2022-10-18T05:02:47.825Z,23.20
2022-10-18T05:05:14.770Z,21.97
2022-10-18T05:07:41.841Z,22.67
2022-10-18T05:10:16.473Z,24.06
2022-10-18T05:12:43.992Z,26.87
2022-10-18T05:15:10.926Z,24.93
2022-10-18T05:17:37.760Z,37.23
2022-10-18T05:20:05.107Z,42.03
2022-10-18T05:22:32.317Z,41.60
2022-10-18T05:24:59.295Z,40.13
2022-10-18T05:27:26.144Z,38.10
2022-10-18T05:29:52.981Z,33.60
2022-10-18T05:32:19.930Z,31.83
2022-10-18T05:34:46.740Z,29.33
2022-10-18T05:37:13.973Z,29.90
2022-10-18T05:39:40.871Z,26.97
2022-10-18T05:42:08.865Z,27.10
2022-10-18T05:44:35.742Z,26.30
2022-10-18T05:47:02.563Z,27.00
2022-10-18T05:49:29.394Z,22.10
2022-10-18T05:51:56.299Z,24.03
2022-10-18T05:54:23.197Z,17.97
2022-10-18T05:56:49.972Z,17.40
2022-10-18T05:59:16.777Z,17.70
2022-10-18T06:01:44.091Z,15.97
2022-10-18T06:04:11.109Z,15.73
2022-10-18T06:06:39.265Z,15.70
2022-10-18T06:09:08.200Z,15.93
2022-10-18T06:11:37.052Z,15.68
2022-10-18T06:14:04.504Z,15.00
2022-10-18T06:16:32.546Z,14.80
2022-10-18T06:19:00.241Z,16.37
2022-10-18T06:21:27.557Z,15.43
2022-10-18T06:23:56.970Z,17.07
2022-10-18T06:26:24.606Z,17.60
2022-10-18T06:28:51.620Z,18.67
2022-10-18T06:31:21.413Z,17.30
2022-10-18T06:33:48.675Z,18.83
2022-10-18T06:36:22.414Z,21.03
2022-10-18T06:38:49.908Z,24.70
2022-10-18T06:41:18.185Z,22.53
2022-10-18T06:43:52.058Z,19.20
2022-10-18T06:46:19.919Z,19.53
2022-10-18T06:48:47.233Z,20.47
2022-10-18T06:51:15.380Z,18.83
2022-10-18T06:53:44.341Z,17.27
2022-10-18T06:56:15.570Z,17.80
2022-10-18T06:58:42.366Z,16.40
2022-10-18T07:01:12.891Z,16.57
2022-10-18T07:03:40.205Z,17.20
2022-10-18T07:06:11.409Z,15.43
2022-10-18T07:08:39.495Z,15.97
2022-10-18T07:11:07.807Z,15.13
2022-10-18T07:13:35.307Z,15.83
2022-10-18T07:16:14.096Z,16.17
2022-10-18T07:18:46.809Z,15.00
2022-10-18T07:23:49.479Z,14.50
2022-10-18T07:26:21.401Z,15.87
2022-10-18T07:28:51.625Z,15.33
2022-10-18T07:31:19.010Z,14.17
2022-10-18T07:33:45.935Z,14.10
2022-10-18T07:36:13.924Z,18.47
2022-10-18T07:38:41.415Z,14.77
2022-10-18T07:41:10.490Z,14.73
2022-10-18T07:43:37.439Z,15.32
2022-10-18T07:46:06.137Z,16.33
2022-10-18T07:48:33.303Z,14.57
2022-10-18T07:51:01.894Z,14.13
2022-10-18T07:53:29.879Z,14.38
2022-10-18T07:56:03.529Z,14.63
2022-10-18T07:58:34.687Z,14.97
2022-10-18T08:01:06.411Z,12.77
2022-10-18T08:03:33.741Z,13.80
2022-10-18T08:06:00.719Z,13.57
2022-10-18T08:08:28.536Z,13.63
2022-10-18T08:10:55.612Z,12.90
2022-10-18T08:13:22.562Z,14.32
2022-10-18T08:15:49.388Z,12.10
2022-10-18T08:18:16.277Z,13.07
2022-10-18T08:20:46.683Z,12.15
2022-10-18T08:23:13.470Z,13.90
2022-10-18T08:25:42.157Z,13.60
2022-10-18T08:28:09.116Z,13.68
2022-10-18T08:30:36.491Z,12.73
2022-10-18T08:33:04.233Z,13.82
2022-10-18T08:35:32.108Z,13.82
2022-10-18T08:37:59.517Z,13.25
2022-10-18T08:40:27.909Z,14.02
2022-10-18T08:43:07.275Z,12.68
2022-10-18T08:45:42.345Z,14.02
2022-10-18T08:48:21.981Z,12.43
2022-10-18T08:50:50.458Z,12.48
2022-10-18T08:53:39.285Z,13.23
2022-10-18T08:56:21.683Z,14.00
2022-10-18T08:58:48.835Z,11.73
2022-10-18T09:01:27.818Z,13.65
2022-10-18T09:04:15.492Z,12.40
2022-10-18T09:06:52.575Z,12.95
2022-10-18T09:09:41.139Z,13.60
2022-10-18T09:12:13.888Z,11.75
2022-10-18T09:14:49.819Z,12.40
2022-10-18T09:17:44.107Z,13.18
2022-10-18T09:20:24.929Z,13.85
2022-10-18T09:23:38.236Z,12.82
2022-10-18T09:26:16.226Z,11.43
2022-10-18T09:29:07.650Z,12.68
2022-10-18T09:31:50.310Z,13.75
2022-10-18T09:34:38.168Z,11.48
2022-10-18T09:37:05.382Z,12.43
2022-10-18T09:39:38.032Z,12.57
2022-10-18T09:42:26.691Z,11.98
2022-10-18T09:45:03.936Z,11.13
2022-10-18T09:47:41.581Z,11.27
2022-10-18T09:50:25.940Z,10.57
2022-10-18T09:53:26.584Z,10.05
2022-10-18T09:56:02.175Z,10.52
2022-10-18T09:58:44.736Z,9.45
2022-10-18T10:01:15.960Z,9.30
2022-10-18T10:03:43.110Z,8.73
2022-10-18T10:06:31.476Z,8.90
2022-10-18T10:09:14.810Z,9.60
2022-10-18T10:11:46.012Z,9.60
2022-10-18T10:17:07.449Z,9.73
2022-10-18T10:19:56.930Z,10.02
2022-10-18T10:22:39.100Z,10.48
2022-10-18T10:25:07.780Z,9.27
2022-10-18T10:27:44.177Z,9.25
2022-10-18T10:30:38.618Z,9.60
2022-10-18T10:33:06.643Z,7.57
2022-10-18T10:35:53.020Z,9.23
2022-10-18T10:38:29.460Z,7.72
2022-10-18T10:40:57.246Z,7.97
2022-10-18T10:46:10.679Z,6.38
2022-10-18T10:49:03.272Z,6.70
2022-10-18T10:51:40.905Z,5.50
2022-10-18T10:54:18.677Z,5.30
2022-10-18T10:56:54.684Z,4.65
2022-10-18T10:59:24.209Z,5.05
2022-10-18T11:02:20.777Z,5.15
2022-10-18T11:04:52.293Z,5.25
2022-10-18T11:07:36.710Z,5.05
2022-10-18T11:10:30.992Z,5.28
2022-10-18T11:13:27.106Z,4.82
2022-10-18T11:16:00.583Z,4.80
2022-10-18T11:18:34.112Z,4.32
2022-10-18T11:21:08.813Z,3.67
2022-10-18T11:23:38.558Z,2.67
2022-10-18T11:26:11.403Z,2.97
2022-10-18T11:29:16.904Z,2.75
2022-10-18T11:31:51.058Z,2.78
2022-10-18T11:34:43.524Z,2.58
2022-10-18T11:37:28.641Z,1.63
2022-10-18T11:40:29.376Z,1.13
2022-10-18T11:43:38.906Z,0.73
2022-10-18T11:46:11.929Z,0.98
2022-10-18T11:48:58.180Z,1.20
2022-10-18T11:51:56.073Z,1.25
2022-10-18T11:54:34.483Z,0.82
2022-10-18T11:57:42.832Z,0.93
2022-10-18T12:00:21.388Z,0.75
2022-10-18T12:05:23.947Z,0.60
2022-10-18T12:08:18.601Z,1.20
2022-10-18T12:11:06.700Z,0.70
2022-10-18T12:13:47.937Z,1.08
2022-10-18T12:16:16.923Z,0.88
2022-10-18T12:18:56.631Z,0.40
2022-10-18T12:21:26.719Z,0.40
2022-10-18T12:23:56.521Z,0.40
2022-10-18T12:26:26.153Z,0.68
2022-10-18T12:29:35.162Z,0.70
2022-10-18T12:32:06.040Z,0.57
2022-10-18T12:34:39.001Z,0.60
2022-10-18T12:37:17.681Z,0.40
2022-10-18T12:42:41.763Z,0.35
2022-10-18T12:45:33.457Z,0.40
2022-10-18T12:48:06.973Z,0.20
2022-10-18T12:50:38.405Z,0.20
2022-10-18T12:53:23.102Z,0.20
2022-10-18T12:55:52.041Z,0.20
2022-10-18T12:58:29.588Z,0.20
2022-10-18T13:00:58.403Z,0.30
2022-10-18T13:06:02.907Z,0.40
2022-10-18T13:08:38.470Z,0.30
2022-10-18T13:11:08.184Z,0.50
2022-10-18T13:13:56.819Z,0.30
2022-10-18T13:16:23.613Z,0.30
2022-10-18T13:19:10.198Z,0.30
2022-10-18T13:21:54.965Z,0.30
2022-10-18T13:24:35.683Z,0.25
2022-10-18T13:27:35.600Z,0.50
2022-10-18T13:30:03.328Z,0.35
2022-10-18T13:32:58.801Z,0.20
2022-10-18T13:35:46.338Z,0.50
2022-10-18T13:38:39.040Z,0.30
2022-10-18T13:41:09.339Z,0.30
2022-10-18T13:44:14.560Z,0.40
2022-10-18T13:46:47.960Z,0.30
2022-10-18T13:49:17.672Z,0.20
2022-10-18T13:51:53.647Z,0.22
2022-10-18T13:54:38.753Z,0.40
2022-10-18T13:57:23.905Z,0.20
2022-10-18T14:00:02.983Z,0.40
2022-10-18T14:03:27.134Z,0.22
2022-10-18T14:06:15.535Z,0.50
2022-10-18T14:08:44.781Z,0.25
2022-10-18T14:11:36.300Z,0.30
2022-10-18T14:14:30.120Z,0.30
2022-10-18T14:17:06.945Z,0.68
2022-10-18T14:19:56.789Z,1.15
2022-10-18T14:22:37.131Z,0.35
2022-10-18T14:25:04.325Z,3.13
2022-10-18T14:27:33.105Z,1.23
2022-10-18T14:30:20.777Z,0.88
2022-10-18T14:32:50.627Z,0.70
2022-10-18T14:35:39.169Z,1.15
2022-10-18T14:40:39.204Z,0.47
2022-10-18T14:43:12.365Z,0.80
2022-10-18T14:45:41.054Z,0.90
2022-10-18T14:50:49.610Z,0.90
2022-10-18T14:53:22.413Z,0.73
2022-10-18T14:56:01.392Z,0.85
2022-10-18T14:58:29.298Z,0.57
2022-10-18T15:00:58.931Z,0.88
2022-10-18T15:03:28.796Z,0.73
2022-10-18T15:06:00.361Z,0.65
2022-10-18T15:08:37.482Z,1.50
2022-10-18T15:11:06.112Z,0.75
2022-10-18T15:13:44.945Z,0.57
2022-10-18T15:16:21.330Z,1.38
2022-10-18T15:19:12.568Z,1.55
2022-10-18T15:22:30.919Z,0.80
2022-10-18T15:25:15.122Z,2.72
2022-10-18T15:27:48.214Z,3.65
2022-10-18T15:30:28.534Z,1.83
2022-10-18T15:33:02.266Z,1.42
2022-10-18T15:35:35.539Z,1.85
2022-10-18T15:38:27.667Z,1.80
2022-10-18T15:40:55.127Z,1.92
2022-10-18T15:43:24.807Z,2.47
2022-10-18T15:46:01.716Z,2.58
2022-10-18T15:48:40.658Z,2.72
2022-10-18T15:51:12.958Z,1.75
2022-10-18T15:53:51.496Z,2.42
2022-10-18T15:56:32.272Z,1.73
2022-10-18T15:59:20.788Z,1.83
2022-10-18T16:01:47.814Z,2.08
2022-10-18T16:04:23.262Z,1.65
2022-10-18T16:06:50.217Z,1.88
2022-10-18T16:09:19.529Z,1.60
2022-10-18T16:11:47.387Z,1.60
2022-10-18T16:14:14.305Z,2.00
2022-10-18T16:16:41.511Z,1.92
2022-10-18T16:19:10.343Z,2.25
2022-10-18T16:21:39.422Z,1.40
2022-10-18T16:24:06.688Z,2.78
2022-10-18T16:26:35.034Z,2.08
2022-10-18T16:29:02.056Z,2.47
2022-10-18T16:31:33.045Z,2.10
2022-10-18T16:34:00.836Z,3.10
2022-10-18T16:36:32.806Z,2.65
2022-10-18T16:39:04.703Z,2.65
2022-10-18T16:41:31.502Z,2.55
2022-10-18T16:43:58.386Z,2.83
2022-10-18T16:46:29.665Z,2.92
2022-10-18T16:48:57.359Z,3.20
2022-10-18T16:51:24.740Z,6.90
2022-10-18T16:53:53.603Z,5.70
2022-10-18T16:56:26.279Z,7.82
2022-10-18T16:58:53.197Z,9.23
2022-10-18T17:01:22.631Z,8.13
2022-10-18T17:03:52.275Z,9.57
2022-10-18T17:06:28.318Z,9.63
2022-10-18T17:08:56.871Z,9.30
2022-10-18T17:11:26.251Z,9.00
2022-10-18T17:13:53.294Z,8.95
2022-10-18T17:16:32.137Z,13.40
2022-10-18T17:19:01.609Z,10.02
2022-10-18T17:21:29.685Z,15.98
2022-10-18T17:24:00.654Z,13.38
2022-10-18T17:26:29.628Z,10.90
2022-10-18T17:29:03.986Z,12.23
2022-10-18T17:31:31.692Z,11.90
2022-10-18T17:34:01.793Z,11.10
2022-10-18T17:36:30.993Z,13.20
2022-10-18T17:38:58.390Z,12.38
2022-10-18T17:41:25.438Z,12.30
2022-10-18T17:43:52.305Z,49.15
2022-10-18T17:46:19.781Z,23.48
2022-10-18T17:48:47.147Z,25.75
2022-10-18T17:51:16.598Z,20.42
2022-10-18T17:53:43.942Z,24.23
2022-10-18T17:56:12.241Z,25.73
2022-10-18T17:58:39.317Z,21.08
2022-10-18T18:01:15.561Z,21.77
2022-10-18T18:03:42.941Z,22.95
2022-10-18T18:06:17.032Z,25.43
2022-10-18T18:08:44.896Z,17.03
2022-10-18T18:11:12.183Z,19.53
2022-10-18T18:13:39.297Z,20.83
2022-10-18T18:16:17.955Z,15.23
2022-10-18T18:18:47.144Z,17.60
2022-10-18T18:21:14.236Z,13.27
2022-10-18T18:23:41.632Z,14.57
2022-10-18T18:26:08.938Z,14.43
2022-10-18T18:28:36.602Z,12.40
2022-10-18T18:31:14.777Z,12.63
2022-10-18T18:33:42.365Z,11.60
2022-10-18T18:36:12.079Z,11.67
2022-10-18T18:38:42.947Z,10.93
2022-10-18T18:41:13.027Z,11.80
2022-10-18T18:43:42.488Z,11.27
2022-10-18T18:46:10.593Z,14.40
2022-10-18T18:48:37.889Z,14.60
2022-10-18T18:51:06.164Z,14.73
2022-10-18T18:53:33.055Z,14.40
2022-10-18T18:56:05.830Z,14.50
2022-10-18T18:58:34.884Z,14.87
2022-10-18T19:01:11.204Z,14.95
2022-10-18T19:03:40.974Z,14.47
2022-10-18T19:06:11.101Z,13.67
2022-10-18T19:08:40.064Z,15.40
2022-10-18T19:11:09.337Z,14.85
2022-10-18T19:13:36.721Z,14.23
2022-10-18T19:16:26.848Z,16.53
2022-10-18T19:18:55.322Z,23.23
2022-10-18T19:21:24.218Z,28.85
2022-10-18T19:23:51.574Z,32.17
2022-10-18T19:26:25.872Z,21.80
2022-10-18T19:28:52.857Z,20.13
2022-10-18T19:31:20.197Z,19.73
2022-10-18T19:33:58.962Z,20.53
2022-10-18T19:38:53.819Z,19.80
2022-10-18T19:41:21.614Z,21.97
2022-10-18T19:43:48.577Z,29.73
2022-10-18T19:46:15.510Z,21.37
2022-10-18T19:48:42.698Z,23.00
2022-10-18T19:51:17.381Z,16.90
2022-10-18T19:53:48.225Z,20.53
2022-10-18T19:56:21.053Z,18.93
2022-10-18T19:58:48.356Z,18.53
2022-10-18T20:01:16.454Z,14.30
2022-10-18T20:03:44.594Z,14.73
2022-10-18T20:06:11.647Z,12.80
2022-10-18T20:08:39.483Z,13.97
2022-10-18T20:11:10.281Z,11.13
2022-10-18T20:13:38.083Z,14.30
2022-10-18T20:16:07.425Z,14.83
2022-10-18T20:18:34.761Z,15.38
2022-10-18T20:21:05.839Z,12.60
2022-10-18T20:23:34.785Z,13.93
2022-10-18T20:26:04.756Z,13.00
2022-10-18T20:28:32.226Z,12.77
2022-10-18T20:31:11.375Z,12.03
2022-10-18T20:33:38.852Z,12.77
2022-10-18T20:36:17.617Z,12.80
2022-10-18T20:38:46.475Z,13.75
2022-10-18T20:41:24.865Z,17.23
2022-10-18T20:43:53.496Z,16.67
2022-10-18T20:46:21.297Z,14.48
2022-10-18T20:48:50.009Z,16.30
2022-10-18T20:51:19.759Z,14.82
2022-10-18T20:53:47.047Z,13.93
2022-10-18T20:56:20.540Z,14.87
2022-10-18T20:58:50.058Z,13.80
2022-10-18T21:03:47.031Z,13.77
2022-10-18T21:06:18.400Z,13.80
2022-10-18T21:08:46.123Z,16.47
2022-10-18T21:11:14.451Z,17.70
2022-10-18T21:13:41.449Z,20.33
2022-10-18T21:16:08.720Z,19.27
2022-10-18T21:18:37.151Z,20.00
2022-10-18T21:21:16.242Z,17.90
2022-10-18T21:23:44.028Z,19.77
2022-10-18T21:26:16.021Z,17.87
2022-10-18T21:28:44.248Z,18.30
2022-10-18T21:31:22.986Z,17.63
2022-10-18T21:33:54.492Z,20.77
2022-10-18T21:36:22.192Z,17.73
2022-10-18T21:38:50.269Z,18.93
2022-10-18T21:41:18.723Z,18.27
2022-10-18T21:43:53.460Z,18.87
2022-10-18T21:46:22.504Z,18.17
2022-10-18T21:48:53.716Z,14.63
2022-10-18T21:51:22.695Z,14.17
2022-10-18T21:53:51.933Z,16.70
2022-10-18T21:56:21.847Z,14.15
2022-10-18T21:58:49.153Z,14.80
2022-10-18T22:01:28.109Z,13.70
2022-10-18T22:03:57.013Z,12.73
2022-10-18T22:06:24.977Z,12.20
2022-10-18T22:08:54.840Z,12.87
2022-10-18T22:11:25.138Z,11.07
2022-10-18T22:13:53.093Z,11.37
2022-10-18T22:16:20.095Z,12.53
2022-10-18T22:18:48.700Z,10.97
2022-10-18T22:21:17.197Z,9.77
2022-10-18T22:23:49.504Z,10.10
2022-10-18T22:26:22.514Z,11.27
2022-10-18T22:28:59.107Z,9.97
2022-10-18T22:31:30.118Z,10.57
2022-10-18T22:33:59.260Z,11.17
2022-10-18T22:36:26.309Z,11.82
2022-10-18T22:38:53.843Z,10.83
2022-10-18T22:41:22.250Z,10.60
2022-10-18T22:43:52.563Z,11.40
2022-10-18T22:46:19.918Z,11.53
2022-10-18T22:48:47.349Z,10.63
2022-10-18T22:51:15.757Z,11.30
2022-10-18T22:53:42.631Z,9.23
2022-10-18T22:56:12.832Z,10.57
2022-10-18T22:58:39.688Z,9.30
2022-10-18T23:01:11.718Z,8.03
2022-10-18T23:03:39.266Z,8.30
2022-10-18T23:06:17.329Z,8.50
2022-10-18T23:08:44.180Z,8.80
2022-10-18T23:11:11.037Z,8.27
2022-10-18T23:13:39.586Z,9.53
2022-10-18T23:16:06.894Z,8.73
2022-10-18T23:18:34.055Z,10.33
2022-10-18T23:21:03.291Z,9.97
2022-10-18T23:23:34.848Z,9.90
2022-10-18T23:26:07.356Z,9.47
2022-10-18T23:28:38.453Z,8.97
2022-10-18T23:31:08.006Z,9.27
2022-10-18T23:36:02.310Z,9.87
2022-10-18T23:38:30.992Z,9.33
2022-10-18T23:40:58.347Z,7.90
2022-10-18T23:43:25.544Z,8.10
2022-10-18T23:45:52.381Z,8.67
2022-10-18T23:48:19.370Z,7.97
2022-10-18T23:50:46.314Z,7.97
2022-10-18T23:53:13.212Z,7.13
2022-10-18T23:55:39.988Z,6.90
2022-10-18T23:58:06.891Z,7.77
